Tuesday, January 23, 2018, 6:55 PM EST
Back to Local

KESN, Easton / Newman Field

Location: Easton, MD, United States Lat: 38.8
Local Time: 6:55 PM EST (23:55 GMT) Lon: -76.067
Time Zone: US/Eastern Elev: 72 ft

Show me the last for .
Show Decoded

2018-01-23 17:50 METAR KESN 232250Z 33008KT 10SM SKC 11/03 A2975 =
2018-01-23 16:50 METAR KESN 232150Z 34008KT 10SM FEW050 13/09 A2971 =
2018-01-23 16:20 METAR KESN 232120Z 34008KT 10SM SCT045 14/10 A2969 =
2018-01-23 15:50 METAR KESN 232050Z 35008G17KT 10SM SCT010 BKN017 13/11 A2968 =
2018-01-23 15:25 METAR KESN 232025Z 04004KT 5SM -RA BR SCT007 BKN010 BKN018 14/12 A2963 =
2018-01-23 14:55 METAR KESN 231955Z 00000KT 7SM -RA SCT015 BKN031 16/12 A2962 =
2018-01-23 14:20 METAR KESN 231920Z 32007KT 10SM SCT050 BKN100 17/14 A2961 =
2018-01-23 13:50 METAR KESN 231850Z 28008G15KT 10SM -RA SCT008 SCT015 17/14 A2960 =
2018-01-23 13:24 METAR KESN 231824Z 21012KT 10SM +RA SCT013 SCT024 BKN034 18/15 A2959 =
2018-01-23 12:53 METAR KESN 231753Z 21010KT 10SM BKN040 19/16 A2960 =
2018-01-23 11:58 METAR KESN 231658Z COR 21009G17KT 10SM BKN020 17/15 A2965 =
2018-01-23 10:50 METAR KESN 231550Z 20012G16KT 10SM RA SCT007 SCT025 BKN032 A2969 =
2018-01-23 09:50 METAR KESN 231450Z 20014G21KT 7SM RA BKN009 OVC017 A2972 =
2018-01-23 08:50 METAR KESN 231350Z 20021G33KT 10SM SCT008 SCT014 SCT080 A2972 =
2018-01-23 07:45 METAR KESN 231245Z 20017G23KT 5SM RA BKN009 OVC014 A2974 =
2018-01-23 07:14 METAR KESN 231214Z 20014G21KT 7SM RA BKN009 BKN015 BKN070 14/13 A2976 =
2018-01-23 06:45 METAR KESN 231145Z 18017G23KT 7SM RA SCT009 BKN016 14/13 A2976 =
2018-01-23 05:45 METAR KESN 231045Z 19011KT 10SM BKN065 14/12 A2981 =
2018-01-23 05:06 METAR KESN 231006Z AUTO 21014G19KT 10SM SCT049 BKN070 14/12 A2984 RMK AO2
                 T01420120 =
2018-01-23 04:48 METAR KESN 230948Z AUTO 21014G21KT 10SM SCT033 SCT045 SCT060 14/12 A2985 RMK AO2
                 T01430119 =
2018-01-23 04:26 METAR KESN 230928Z AUTO 20011G20KT 10SM BKN033 BKN040 14/12 A2985 RMK AO2
                 T01430117 =
2018-01-23 04:06 METAR KESN 230908Z AUTO 21013G18KT 10SM SCT029 BKN035 OVC060 14/12 A2986 RMK AO2
                 T01390115 =
2018-01-23 03:48 METAR KESN 230848Z AUTO 20013G21KT 10SM SCT029 SCT035 BKN065 13/11 A2987 RMK AO2
                 T01330108 =
2018-01-23 03:26 METAR KESN 230828Z AUTO 19013G18KT 10SM SCT030 SCT036 BKN080 13/10 A2988 RMK AO2
                 T01320104 =
2018-01-23 03:06 METAR KESN 230808Z AUTO 19011KT 10SM SCT033 BKN085 13/10 A2990 RMK AO2 T01280098
                 =
2018-01-23 02:48 METAR KESN 230748Z AUTO 19009KT 10SM SCT016 SCT035 SCT085 12/09 A2991 RMK AO2
                 T01230090 =
2018-01-23 02:26 METAR KESN 230728Z AUTO 19009KT 10SM SCT014 SCT034 12/08 A2993 RMK AO2 T01200084
                 =
2018-01-23 02:07 METAR KESN 230708Z AUTO 18009KT 10SM SCT014 SCT034 12/08 A2993 RMK AO2 T01170080
                 =
2018-01-23 01:48 METAR KESN 230648Z AUTO 18008KT 10SM SCT034 12/08 A2995 RMK AO2 T01160076 =
2018-01-23 01:27 METAR KESN 230628Z AUTO 19008KT 10SM SCT034 12/08 A2997 RMK AO2 T01150075 =
2018-01-23 01:07 METAR KESN 230608Z AUTO 18007KT 10SM BKN034 11/07 A2998 RMK AO2 T01100069 =
2018-01-23 00:48 METAR KESN 230548Z AUTO 19009G14KT 10SM CLR 11/07 A3000 RMK AO2 T01110069 =
2018-01-23 00:28 METAR KESN 230528Z AUTO 19010G14KT 10SM CLR 11/07 A3001 RMK AO2 T01110067 =
2018-01-23 00:06 METAR KESN 230508Z AUTO 20009KT 10SM CLR 11/07 A3001 RMK AO2 T01110066 =
2018-01-22 23:48 METAR KESN 230448Z AUTO 19008G14KT 10SM CLR 11/07 A3001 RMK AO2 T01140065 =
2018-01-22 23:26 METAR KESN 230428Z AUTO 18010KT 10SM CLR 12/06 A3002 RMK AO2 T01150063 =
2018-01-22 23:07 METAR KESN 230408Z AUTO 18010KT 10SM CLR 12/06 A3004 RMK AO2 T01150060 =
2018-01-22 22:48 METAR KESN 230348Z AUTO 19008KT 10SM SCT100 12/06 A3005 RMK AO2 T01150056 =
2018-01-22 22:26 METAR KESN 230328Z AUTO 21007KT 10SM CLR 11/06 A3008 RMK AO2 T01140055 =
2018-01-22 21:50 METAR KESN 230250Z 17010KT 10SM BKN200 12/05 A3004 =
2018-01-22 20:50 METAR KESN 230150Z 18008KT 10SM BKN200 12/05 A3007 =
2018-01-22 19:55 METAR KESN 230055Z 16007KT 10SM BKN200 12/05 A3008 =

Support USWX by starting your Amazon purchase here.